Time;durP1;ratioP1;P1;durP2;ratioP2;P2;SDS_P1;SDS_P2;PMS_P1;PMS_P2;Temp;Humidity;BMP_temperature;BMP_pressure;BME280_temperature;BME280_humidity;BME280_pressure;Samples;Min_cycle;Max_cycle;Signal;HPM_P1;HPM_P2
2023/05/19 00:00:06;;;;;;;9.93;4.47;;;8.80;99.90;;;;;;5046988;28;20324;-64
2023/05/19 00:02:34;;;;;;;9.23;3.60;;;8.90;99.90;;;;;;5014465;28;20220;-63
2023/05/19 00:05:01;;;;;;;11.23;3.90;;;8.90;99.90;;;;;;5038686;28;20197;-64
2023/05/19 00:07:31;;;;;;;8.77;4.13;;;9.00;99.90;;;;;;5015784;28;20352;-63
2023/05/19 00:09:58;;;;;;;4.38;3.50;;;8.80;99.90;;;;;;5046976;28;20338;-63
2023/05/19 00:12:26;;;;;;;8.10;3.95;;;8.70;99.90;;;;;;5026018;28;20203;-63
2023/05/19 00:14:53;;;;;;;3.42;3.05;;;8.60;99.90;;;;;;5054854;28;20212;-63
2023/05/19 00:17:20;;;;;;;3.65;2.92;;;8.40;99.90;;;;;;5034034;28;21366;-64
2023/05/19 00:19:47;;;;;;;5.77;2.50;;;8.30;99.90;;;;;;5055240;28;20196;-63
2023/05/19 00:22:14;;;;;;;3.90;2.40;;;8.10;99.90;;;;;;5028536;28;20863;-63
2023/05/19 00:24:42;;;;;;;5.45;2.90;;;8.00;99.90;;;;;;5045803;28;20225;-63
2023/05/19 00:27:09;;;;;;;4.85;3.33;;;7.80;99.90;;;;;;5029070;28;20703;-63
2023/05/19 00:29:36;;;;;;;4.83;3.13;;;7.70;99.90;;;;;;5052122;28;20321;-63
2023/05/19 00:32:03;;;;;;;4.50;2.80;;;7.60;99.90;;;;;;5055214;28;20205;-63
2023/05/19 00:34:30;;;;;;;4.60;2.80;;;7.50;99.90;;;;;;5031676;28;20858;-63
2023/05/19 00:36:57;;;;;;;3.37;2.60;;;7.50;99.90;;;;;;5039972;28;20762;-63
2023/05/19 00:39:23;;;;;;;3.03;2.73;;;7.50;99.90;;;;;;5052099;28;20196;-63
2023/05/19 00:41:51;;;;;;;4.40;2.27;;;7.60;99.90;;;;;;5022142;28;20256;-63
2023/05/19 00:44:18;;;;;;;2.80;2.20;;;7.60;99.90;;;;;;5059960;28;20647;-63
2023/05/19 00:46:45;;;;;;;3.07;2.27;;;7.50;99.90;;;;;;5059814;28;20573;-63
2023/05/19 00:49:12;;;;;;;2.30;1.90;;;7.40;99.90;;;;;;5044772;28;20235;-64
2023/05/19 00:51:40;;;;;;;3.83;1.93;;;7.30;99.90;;;;;;5037460;28;20211;-64
2023/05/19 00:54:06;;;;;;;6.27;2.60;;;7.30;99.90;;;;;;5051269;28;20196;-63
2023/05/19 00:56:33;;;;;;;7.33;3.00;;;7.20;99.90;;;;;;5058569;28;20302;-63
2023/05/19 00:59:02;;;;;;;5.63;3.30;;;7.20;99.90;;;;;;5027370;28;20200;-63
2023/05/19 01:01:31;;;;;;;4.67;2.77;;;7.20;99.90;;;;;;5063080;28;20514;-63
2023/05/19 01:03:58;;;;;;;8.03;3.43;;;7.10;99.90;;;;;;5060491;28;20208;-63
2023/05/19 01:06:26;;;;;;;5.77;3.60;;;7.20;99.90;;;;;;5031677;28;20927;-63
2023/05/19 01:08:54;;;;;;;8.10;3.93;;;7.30;99.90;;;;;;5055888;28;20247;-63
2023/05/19 01:11:21;;;;;;;6.93;4.40;;;7.30;99.90;;;;;;5042945;28;20410;-63
2023/05/19 01:13:48;;;;;;;6.23;4.10;;;7.30;99.90;;;;;;5023575;28;20211;-64
2023/05/19 01:16:24;;;;;;;5.00;3.97;;;7.30;99.90;;;;;;5050156;28;20192;-63
2023/05/19 01:19:00;;;;;;;8.40;3.93;;;7.30;99.90;;;;;;5052048;28;20230;-63
2023/05/19 01:22:05;;;;;;;7.97;4.07;;;7.50;99.90;;;;;;5030347;28;21182;-63
2023/05/19 01:25:01;;;;;;;8.13;3.63;;;7.60;99.90;;;;;;5057157;28;20526;-63
2023/05/19 01:27:46;;;;;;;5.00;3.80;;;7.80;99.90;;;;;;5034354;28;20208;-63
2023/05/19 01:30:28;;;;;;;5.83;4.20;;;7.80;99.90;;;;;;5003983;28;20225;-64
2023/05/19 01:32:58;;;;;;;8.53;3.77;;;7.80;99.90;;;;;;5057962;28;20196;-63
2023/05/19 01:35:26;;;;;;;8.63;3.53;;;7.70;99.90;;;;;;5038392;28;20229;-63
2023/05/19 01:37:55;;;;;;;6.20;3.60;;;7.60;99.90;;;;;;5041513;28;20208;-64
2023/05/19 01:40:23;;;;;;;4.57;3.27;;;7.60;99.90;;;;;;5053708;28;20211;-63
2023/05/19 01:42:52;;;;;;;7.30;3.70;;;7.70;99.90;;;;;;5044139;28;20208;-64
2023/05/19 01:45:21;;;;;;;4.97;3.43;;;7.70;99.90;;;;;;5025536;28;20312;-63
2023/05/19 01:47:50;;;;;;;7.90;3.20;;;7.60;99.90;;;;;;5054208;28;20658;-64
2023/05/19 01:50:17;;;;;;;3.87;3.43;;;7.50;99.90;;;;;;5048249;28;20232;-63
2023/05/19 01:52:44;;;;;;;4.10;3.47;;;7.50;99.90;;;;;;5046906;28;20196;-63
2023/05/19 01:55:11;;;;;;;3.73;2.80;;;7.40;99.90;;;;;;5057094;28;20192;-63
2023/05/19 01:57:46;;;;;;;4.70;3.10;;;7.30;99.90;;;;;;5054230;28;20204;-63
2023/05/19 02:00:21;;;;;;;4.70;2.93;;;7.10;99.90;;;;;;5022018;28;20206;-64
2023/05/19 02:02:58;;;;;;;5.63;2.93;;;7.00;99.90;;;;;;5066109;28;20206;-63
2023/05/19 02:05:33;;;;;;;3.70;2.70;;;6.70;99.90;;;;;;5042579;28;20640;-64
2023/05/19 02:08:08;;;;;;;4.70;3.27;;;6.70;99.90;;;;;;5044438;28;20212;-63
2023/05/19 02:10:40;;;;;;;3.60;3.10;;;6.60;99.90;;;;;;5055926;28;20223;-63
2023/05/19 02:13:08;;;;;;;7.70;3.73;;;6.60;99.90;;;;;;5047794;28;20196;-63
2023/05/19 02:15:40;;;;;;;6.10;3.17;;;6.80;99.90;;;;;;5029487;28;21192;-63
2023/05/19 02:18:10;;;;;;;3.93;3.33;;;6.80;99.90;;;;;;5057801;28;20307;-63
2023/05/19 02:20:37;;;;;;;4.33;3.50;;;6.80;99.90;;;;;;5042007;28;20649;-64
2023/05/19 02:23:04;;;;;;;5.10;3.83;;;6.80;99.90;;;;;;5057379;28;20208;-64
2023/05/19 02:25:31;;;;;;;8.53;3.80;;;6.90;99.90;;;;;;5048865;28;20436;-63
2023/05/19 02:27:58;;;;;;;7.63;4.03;;;7.10;99.90;;;;;;5059552;28;20675;-63
2023/05/19 02:30:25;;;;;;;5.13;3.80;;;7.00;99.90;;;;;;5055929;28;20236;-63
2023/05/19 02:32:53;;;;;;;7.80;4.37;;;7.00;99.90;;;;;;5024493;28;20215;-63
2023/05/19 02:35:21;;;;;;;6.00;3.97;;;7.00;99.90;;;;;;5032776;28;20211;-63
2023/05/19 02:37:48;;;;;;;6.67;4.00;;;7.00;99.90;;;;;;5059448;28;20396;-63
2023/05/19 02:40:14;;;;;;;10.13;3.67;;;7.10;99.90;;;;;;5044931;28;20203;-63
2023/05/19 02:42:41;;;;;;;8.80;4.27;;;7.20;99.90;;;;;;5055505;28;20284;-64
2023/05/19 02:45:09;;;;;;;10.47;4.03;;;7.10;99.90;;;;;;5051096;28;20200;-63
2023/05/19 02:47:37;;;;;;;8.50;4.80;;;6.90;99.90;;;;;;5028233;28;20878;-63
2023/05/19 02:50:04;;;;;;;4.97;4.20;;;6.80;99.90;;;;;;5042783;28;20239;-63
2023/05/19 02:52:32;;;;;;;5.93;4.43;;;6.80;99.90;;;;;;5045889;28;20211;-64
2023/05/19 02:54:59;;;;;;;11.23;4.63;;;6.80;99.90;;;;;;5061602;28;20282;-64
2023/05/19 02:57:26;;;;;;;7.13;4.40;;;6.90;99.90;;;;;;5044431;28;20196;-63
2023/05/19 02:59:53;;;;;;;9.23;3.97;;;7.00;99.90;;;;;;5055345;28;20282;-63
2023/05/19 03:02:20;;;;;;;5.53;4.17;;;6.80;99.90;;;;;;5016659;28;20219;-63
2023/05/19 03:04:46;;;;;;;5.83;4.17;;;6.90;99.90;;;;;;5060951;28;21707;-63
2023/05/19 03:07:14;;;;;;;7.10;4.47;;;6.80;99.90;;;;;;5030017;28;20542;-63
2023/05/19 03:09:42;;;;;;;7.93;4.20;;;6.60;99.90;;;;;;5064761;28;20317;-63
2023/05/19 03:12:09;;;;;;;6.27;4.40;;;6.50;99.90;;;;;;5037768;28;20204;-64
2023/05/19 03:14:37;;;;;;;5.47;4.30;;;6.30;99.90;;;;;;5058515;28;20282;-63
2023/05/19 03:17:06;;;;;;;6.13;4.03;;;6.20;99.90;;;;;;5033269;28;20223;-64
2023/05/19 03:19:33;;;;;;;9.80;5.03;;;6.20;99.90;;;;;;5043383;28;20465;-63
2023/05/19 03:21:59;;;;;;;7.37;4.53;;;6.20;99.90;;;;;;5048344;28;20212;-63
2023/05/19 03:24:26;;;;;;;6.23;4.33;;;6.20;99.90;;;;;;5041023;28;20220;-64
2023/05/19 03:26:54;;;;;;;10.80;4.90;;;6.20;99.90;;;;;;5059376;28;20207;-63
2023/05/19 03:29:21;;;;;;;10.73;4.77;;;6.30;99.90;;;;;;5038431;28;20727;-63
2023/05/19 03:31:48;;;;;;;9.43;4.83;;;6.40;99.90;;;;;;5051287;28;20230;-63
2023/05/19 03:34:15;;;;;;;10.13;5.60;;;6.50;99.90;;;;;;5022003;28;20205;-63
2023/05/19 03:36:41;;;;;;;6.40;5.20;;;6.70;99.90;;;;;;5040957;28;20502;-64
2023/05/19 03:39:09;;;;;;;7.60;5.03;;;6.80;99.90;;;;;;5045174;28;20673;-63
2023/05/19 03:41:36;;;;;;;8.57;5.50;;;6.90;99.90;;;;;;5052396;28;20802;-63
2023/05/19 03:44:05;;;;;;;8.53;5.17;;;6.70;99.90;;;;;;5040374;28;22401;-63
2023/05/19 03:46:31;;;;;;;8.67;5.27;;;6.60;99.90;;;;;;5045826;28;20201;-64
2023/05/19 03:48:58;;;;;;;7.10;4.67;;;6.50;99.90;;;;;;5018808;28;20211;-63
2023/05/19 03:51:27;;;;;;;7.93;5.13;;;6.30;99.90;;;;;;5048045;28;20227;-63
2023/05/19 03:53:54;;;;;;;5.13;4.27;;;6.20;99.90;;;;;;5034587;28;20409;-63
2023/05/19 03:56:23;;;;;;;9.70;4.73;;;6.00;99.90;;;;;;5059883;28;20220;-63
2023/05/19 03:58:50;;;;;;;6.90;5.07;;;6.20;99.90;;;;;;5037504;28;20707;-64
2023/05/19 04:01:18;;;;;;;9.83;5.10;;;6.20;99.90;;;;;;5056142;28;20214;-63
2023/05/19 04:03:45;;;;;;;8.67;4.30;;;6.20;99.90;;;;;;5007453;28;20211;-63
2023/05/19 04:06:12;;;;;;;8.23;5.00;;;6.10;99.90;;;;;;5055190;28;20227;-63
2023/05/19 04:08:39;;;;;;;9.80;5.10;;;6.10;99.90;;;;;;5037603;28;20245;-63
2023/05/19 04:11:06;;;;;;;9.60;4.77;;;6.00;99.90;;;;;;5052152;28;20232;-63
2023/05/19 04:13:33;;;;;;;6.67;4.47;;;6.00;99.90;;;;;;5043703;28;20786;-63
2023/05/19 04:16:00;;;;;;;9.47;4.40;;;6.10;99.90;;;;;;5053767;28;20203;-63
2023/05/19 04:18:28;;;;;;;7.67;5.27;;;6.00;99.90;;;;;;5050801;28;20210;-63
2023/05/19 04:20:55;;;;;;;6.70;4.50;;;6.00;99.90;;;;;;5017119;28;20500;-63
2023/05/19 04:23:22;;;;;;;7.20;4.40;;;6.20;99.90;;;;;;5054488;28;20219;-63
2023/05/19 04:25:49;;;;;;;7.47;4.83;;;6.30;99.90;;;;;;5035900;28;20227;-63
2023/05/19 04:28:16;;;;;;;12.97;5.70;;;6.20;99.90;;;;;;5051425;28;20192;-64
2023/05/19 04:30:45;;;;;;;8.00;5.10;;;6.30;99.90;;;;;;5033785;28;20475;-63
2023/05/19 04:33:12;;;;;;;7.10;5.10;;;6.40;99.90;;;;;;5050396;28;20193;-63
2023/05/19 04:35:40;;;;;;;5.73;4.70;;;6.60;99.90;;;;;;5024049;28;20228;-63
2023/05/19 04:38:08;;;;;;;5.20;4.53;;;6.50;99.90;;;;;;5049406;28;20821;-63
2023/05/19 04:40:35;;;;;;;7.83;5.00;;;6.50;99.90;;;;;;5029887;28;20376;-63
2023/05/19 04:43:02;;;;;;;10.23;4.50;;;6.50;99.90;;;;;;5057174;28;20211;-63
2023/05/19 04:45:31;;;;;;;7.07;5.03;;;6.50;99.90;;;;;;5035753;28;20215;-63
2023/05/19 04:47:58;;;;;;;8.57;4.83;;;6.30;99.90;;;;;;5050193;28;20263;-63
2023/05/19 04:50:27;;;;;;;6.33;4.17;;;6.30;99.90;;;;;;5022674;28;20228;-63
2023/05/19 04:52:57;;;;;;;6.30;4.73;;;6.50;99.90;;;;;;5051278;28;20200;-63
2023/05/19 04:55:24;;;;;;;9.57;5.60;;;6.70;99.90;;;;;;5040651;28;20696;-63
2023/05/19 04:57:51;;;;;;;8.33;4.67;;;6.70;99.90;;;;;;5037005;28;20737;-63
2023/05/19 05:00:19;;;;;;;8.00;4.60;;;6.60;99.90;;;;;;5050184;28;20212;-63
2023/05/19 05:02:46;;;;;;;9.93;4.93;;;6.60;99.90;;;;;;5035828;28;20476;-63
2023/05/19 05:05:12;;;;;;;8.47;4.73;;;6.80;99.90;;;;;;5020346;28;20224;-63
2023/05/19 05:07:39;;;;;;;8.57;5.17;;;6.90;99.90;;;;;;5048849;28;20348;-63
2023/05/19 05:10:09;;;;;;;7.47;4.67;;;6.90;99.90;;;;;;5048190;28;20712;-64
2023/05/19 05:12:36;;;;;;;9.67;5.07;;;6.90;99.90;;;;;;5030316;28;20396;-64
2023/05/19 05:15:05;;;;;;;6.70;4.50;;;6.90;99.90;;;;;;5054007;28;20204;-63
2023/05/19 05:17:34;;;;;;;10.50;4.90;;;6.90;99.90;;;;;;5042360;28;20200;-63
2023/05/19 05:20:01;;;;;;;8.30;4.30;;;6.90;99.90;;;;;;5025823;28;21052;-64
2023/05/19 05:22:29;;;;;;;6.23;4.40;;;7.00;99.90;;;;;;5047804;28;20227;-63
2023/05/19 05:24:56;;;;;;;8.37;4.63;;;6.90;99.90;;;;;;5047050;28;20229;-63
2023/05/19 05:27:24;;;;;;;13.03;4.63;;;6.80;99.90;;;;;;5042568;28;20197;-63
2023/05/19 05:29:52;;;;;;;6.17;5.00;;;6.70;99.90;;;;;;5038319;28;20315;-64
2023/05/19 05:32:19;;;;;;;8.27;4.73;;;6.80;99.90;;;;;;5036747;28;20200;-64
2023/05/19 05:34:46;;;;;;;12.40;5.23;;;6.90;99.90;;;;;;5058377;28;20196;-63
2023/05/19 05:37:12;;;;;;;8.57;4.67;;;7.00;99.90;;;;;;5027307;28;20228;-63
2023/05/19 05:39:39;;;;;;;7.30;5.30;;;7.00;99.90;;;;;;5056614;28;20200;-63
2023/05/19 05:42:07;;;;;;;11.07;5.17;;;7.00;99.90;;;;;;5037041;28;21397;-63
2023/05/19 05:44:36;;;;;;;7.70;5.10;;;7.00;99.90;;;;;;5041078;28;20413;-63
2023/05/19 05:47:03;;;;;;;11.27;4.87;;;7.10;99.90;;;;;;5052694;28;20200;-64
2023/05/19 05:49:30;;;;;;;14.17;6.83;;;7.20;99.90;;;;;;5046806;28;20681;-63
2023/05/19 05:51:57;;;;;;;8.77;6.27;;;7.20;99.90;;;;;;5029921;28;20216;-63
2023/05/19 05:54:25;;;;;;;15.10;7.37;;;7.10;99.90;;;;;;5056565;28;20197;-64
2023/05/19 05:56:52;;;;;;;14.57;6.00;;;7.20;99.90;;;;;;5052960;28;20338;-64
2023/05/19 05:59:19;;;;;;;9.37;5.53;;;7.30;99.90;;;;;;5029726;28;20242;-64
2023/05/19 06:01:47;;;;;;;7.63;5.03;;;7.30;99.90;;;;;;5058246;28;20235;-64
2023/05/19 06:04:14;;;;;;;11.57;5.67;;;7.30;99.90;;;;;;5042795;28;20700;-63
2023/05/19 06:06:41;;;;;;;9.67;5.80;;;7.40;99.90;;;;;;5020119;28;20231;-63
2023/05/19 06:09:08;;;;;;;9.03;5.37;;;7.60;99.90;;;;;;5042851;28;20208;-64
2023/05/19 06:11:35;;;;;;;10.20;6.10;;;7.70;99.90;;;;;;5056023;28;20244;-63
2023/05/19 06:14:03;;;;;;;6.60;5.20;;;7.80;99.90;;;;;;5042681;28;20203;-63
2023/05/19 06:16:30;;;;;;;6.63;5.23;;;7.90;99.90;;;;;;5044442;28;20285;-64
2023/05/19 06:18:58;;;;;;;9.67;5.10;;;7.90;99.90;;;;;;5042587;28;20209;-64
2023/05/19 06:21:25;;;;;;;7.83;5.37;;;8.00;99.90;;;;;;5055974;28;20848;-63
2023/05/19 06:23:52;;;;;;;9.87;5.63;;;8.10;99.90;;;;;;5024531;28;21277;-64
2023/05/19 06:26:19;;;;;;;9.80;5.33;;;8.20;99.90;;;;;;5053276;28;21892;-64
2023/05/19 06:28:45;;;;;;;8.07;5.43;;;8.30;99.90;;;;;;5048694;28;20200;-64
2023/05/19 06:31:12;;;;;;;10.13;5.60;;;8.40;99.90;;;;;;5040729;28;20230;-64
2023/05/19 06:33:39;;;;;;;14.13;5.57;;;8.50;99.90;;;;;;5052214;28;20193;-63
2023/05/19 06:36:08;;;;;;;13.07;5.40;;;8.70;99.90;;;;;;5034640;28;20208;-63
2023/05/19 06:38:35;;;;;;;9.32;6.03;;;8.80;99.90;;;;;;5021774;28;21795;-64
2023/05/19 06:41:02;;;;;;;9.80;5.55;;;8.90;99.90;;;;;;5056078;28;20197;-64
2023/05/19 06:43:29;;;;;;;11.50;4.97;;;8.90;99.90;;;;;;5042566;28;20769;-64
2023/05/19 06:45:56;;;;;;;9.63;4.80;;;9.00;99.90;;;;;;5045008;28;20204;-64
2023/05/19 06:48:22;;;;;;;9.25;5.13;;;9.10;99.90;;;;;;5050050;28;20192;-64
2023/05/19 06:50:49;;;;;;;12.85;6.40;;;9.20;99.90;;;;;;5043363;28;20228;-64
2023/05/19 06:53:19;;;;;;;9.95;4.82;;;9.20;99.90;;;;;;5028540;28;20203;-63
2023/05/19 06:55:49;;;;;;;11.80;5.07;;;9.30;99.90;;;;;;5061086;28;20584;-64
2023/05/19 06:58:15;;;;;;;8.45;4.32;;;9.40;99.90;;;;;;5053021;28;20219;-64
2023/05/19 07:00:43;;;;;;;9.63;4.83;;;9.50;99.90;;;;;;5040356;28;20253;-64
2023/05/19 07:03:10;;;;;;;11.15;5.28;;;9.60;99.90;;;;;;5049778;28;20834;-64
2023/05/19 07:05:36;;;;;;;6.07;4.75;;;9.60;99.90;;;;;;5041235;28;20284;-64
2023/05/19 07:08:04;;;;;;;12.57;4.75;;;9.70;99.90;;;;;;5050254;28;20196;-65
2023/05/19 07:10:32;;;;;;;6.80;4.72;;;9.80;99.90;;;;;;5032142;28;20445;-64
2023/05/19 07:12:59;;;;;;;18.38;5.22;;;9.90;99.90;;;;;;5049830;28;20208;-64
2023/05/19 07:15:26;;;;;;;14.50;5.68;;;10.00;99.90;;;;;;5036867;28;20217;-64
2023/05/19 07:17:52;;;;;;;8.05;5.30;;;10.00;99.90;;;;;;5054727;28;20208;-64
2023/05/19 07:20:19;;;;;;;12.13;5.45;;;10.20;99.90;;;;;;5048853;28;20653;-64
2023/05/19 07:22:46;;;;;;;12.40;5.90;;;10.20;99.90;;;;;;5044219;28;20697;-64
2023/05/19 07:25:13;;;;;;;5.18;4.65;;;10.30;99.90;;;;;;5016752;28;20244;-64
2023/05/19 07:27:41;;;;;;;8.82;5.32;;;10.40;99.90;;;;;;5037204;28;20761;-64
2023/05/19 07:30:09;;;;;;;14.73;5.25;;;10.50;99.90;;;;;;5039095;28;20216;-64
2023/05/19 07:32:35;;;;;;;11.93;6.18;;;10.60;99.90;;;;;;5052544;28;20292;-64
2023/05/19 07:35:03;;;;;;;13.23;4.90;;;10.70;99.90;;;;;;5054739;28;20200;-64
2023/05/19 07:37:29;;;;;;;9.48;4.65;;;10.70;99.90;;;;;;5039163;28;20204;-64
2023/05/19 07:39:56;;;;;;;6.20;3.72;;;10.80;99.90;;;;;;5043650;28;20223;-64
2023/05/19 07:42:23;;;;;;;9.98;4.32;;;10.90;99.90;;;;;;5017648;28;20709;-64
2023/05/19 07:44:51;;;;;;;8.20;3.97;;;11.00;99.90;;;;;;5038463;28;20236;-64
2023/05/19 07:47:18;;;;;;;7.15;4.00;;;11.00;99.90;;;;;;5037782;28;20204;-64
2023/05/19 07:49:45;;;;;;;10.65;4.38;;;11.10;99.90;;;;;;5048207;28;20224;-64
2023/05/19 07:52:12;;;;;;;5.82;3.80;;;11.20;99.90;;;;;;5043358;28;20235;-64
2023/05/19 07:54:38;;;;;;;8.85;4.00;;;11.40;99.90;;;;;;5042416;28;20231;-65
2023/05/19 07:57:05;;;;;;;7.55;3.70;;;11.40;99.90;;;;;;5015374;28;20819;-64
2023/05/19 07:59:32;;;;;;;8.32;3.95;;;11.50;99.90;;;;;;5038271;28;20231;-64
2023/05/19 08:02:00;;;;;;;9.05;4.20;;;11.60;99.90;;;;;;5044272;28;20705;-64
2023/05/19 08:04:27;;;;;;;10.32;4.00;;;11.70;99.90;;;;;;5053101;28;20398;-65
2023/05/19 08:06:54;;;;;;;7.85;3.67;;;11.70;99.90;;;;;;5051301;28;20211;-64
2023/05/19 08:09:21;;;;;;;9.15;3.13;;;11.70;99.90;;;;;;5033254;28;20215;-64
2023/05/19 08:11:48;;;;;;;6.00;3.08;;;11.80;99.90;;;;;;5026500;28;20232;-65
2023/05/19 08:14:15;;;;;;;9.60;3.50;;;12.00;99.90;;;;;;5054564;28;20295;-64
2023/05/19 08:16:44;;;;;;;5.55;3.20;;;11.90;99.90;;;;;;5024448;28;20221;-64
2023/05/19 08:19:12;;;;;;;9.32;3.80;;;12.00;99.90;;;;;;5027577;28;20613;-64
2023/05/19 08:21:41;;;;;;;4.82;3.13;;;12.00;99.90;;;;;;5058466;28;20292;-64
2023/05/19 08:24:08;;;;;;;5.65;2.80;;;12.10;99.90;;;;;;5029067;28;20227;-65
2023/05/19 08:26:34;;;;;;;8.73;3.38;;;12.20;99.90;;;;;;5019347;28;20208;-66
2023/05/19 08:29:01;;;;;;;8.50;3.15;;;12.30;99.90;;;;;;5045755;28;20847;-65
2023/05/19 08:31:28;;;;;;;6.65;2.97;;;12.40;99.90;;;;;;5028589;28;20244;-65
2023/05/19 08:33:55;;;;;;;8.40;3.30;;;12.60;99.90;;;;;;5036126;28;20211;-66
2023/05/19 08:36:23;;;;;;;5.10;3.00;;;12.30;99.90;;;;;;5057668;28;20201;-65
2023/05/19 08:38:50;;;;;;;10.88;2.80;;;12.60;99.90;;;;;;5034240;28;20220;-65
2023/05/19 08:41:17;;;;;;;7.63;2.80;;;12.60;99.90;;;;;;5037529;28;20192;-65
2023/05/19 08:43:44;;;;;;;7.10;2.70;;;12.70;99.90;;;;;;5016421;28;20220;-65
2023/05/19 08:46:15;;;;;;;7.80;2.80;;;12.70;99.90;;;;;;5035771;28;20220;-65
2023/05/19 08:48:44;;;;;;;4.20;2.83;;;12.90;99.90;;;;;;5038603;28;20309;-65
2023/05/19 08:51:18;;;;;;;10.40;2.58;;;12.80;99.90;;;;;;5051727;28;20220;-65
2023/05/19 08:53:50;;;;;;;6.05;2.42;;;12.90;99.90;;;;;;5055134;28;20650;-65
2023/05/19 08:56:21;;;;;;;6.05;2.22;;;13.10;99.90;;;;;;5032446;28;20196;-65
2023/05/19 08:58:49;;;;;;;7.18;2.33;;;13.10;99.90;;;;;;5027415;28;20208;-65
2023/05/19 09:01:17;;;;;;;4.10;2.13;;;13.20;99.90;;;;;;5044493;28;20215;-65
2023/05/19 09:03:45;;;;;;;7.88;2.60;;;13.20;99.90;;;;;;5044900;28;20583;-65
2023/05/19 09:06:12;;;;;;;6.50;2.20;;;13.30;99.90;;;;;;5060432;28;20234;-65
2023/05/19 09:08:40;;;;;;;6.13;2.35;;;13.30;99.90;;;;;;5063812;28;20195;-65
2023/05/19 09:11:09;;;;;;;6.35;2.30;;;13.40;99.90;;;;;;5049883;28;20222;-65
2023/05/19 09:13:36;;;;;;;9.32;2.40;;;13.50;99.90;;;;;;5050426;28;20207;-65
2023/05/19 09:16:03;;;;;;;8.90;2.22;;;13.60;99.90;;;;;;5010925;28;20238;-65
2023/05/19 09:18:30;;;;;;;6.20;2.22;;;13.70;99.90;;;;;;5048921;28;20207;-65
2023/05/19 09:20:59;;;;;;;5.28;2.10;;;13.80;99.90;;;;;;5034803;28;20232;-65
2023/05/19 09:23:28;;;;;;;4.00;2.13;;;13.80;99.90;;;;;;5066130;28;20549;-65
2023/05/19 09:25:55;;;;;;;4.70;1.98;;;13.80;99.90;;;;;;5038633;28;20243;-65
2023/05/19 09:28:29;;;;;;;4.63;2.20;;;13.90;99.90;;;;;;5059109;28;20204;-65
2023/05/19 09:31:00;;;;;;;12.27;2.70;;;13.90;99.90;;;;;;5018180;28;20212;-65
2023/05/19 09:33:27;;;;;;;3.40;1.77;;;14.00;99.90;;;;;;5048840;28;20405;-66
2023/05/19 09:35:55;;;;;;;4.20;1.92;;;14.10;99.90;;;;;;5031907;28;20215;-65
2023/05/19 09:38:23;;;;;;;15.52;2.25;;;14.20;99.90;;;;;;5053392;28;20590;-65
2023/05/19 09:40:50;;;;;;;5.93;2.10;;;14.30;99.90;;;;;;5049790;28;20231;-65
2023/05/19 09:43:17;;;;;;;3.95;2.08;;;14.30;99.90;;;;;;5038478;28;20215;-65
2023/05/19 09:45:45;;;;;;;5.80;2.20;;;14.40;99.90;;;;;;5032553;28;20208;-65
2023/05/19 09:48:12;;;;;;;11.98;2.50;;;14.50;99.90;;;;;;5043499;28;20200;-65
2023/05/19 09:50:39;;;;;;;3.72;2.10;;;14.60;99.90;;;;;;5038541;28;20311;-65
2023/05/19 09:53:06;;;;;;;5.53;2.20;;;14.80;99.90;;;;;;5033185;28;20243;-65
2023/05/19 09:55:34;;;;;;;7.40;2.53;;;14.80;99.90;;;;;;5044207;28;20250;-65
2023/05/19 09:58:03;;;;;;;6.45;2.22;;;14.80;99.90;;;;;;5035188;28;20226;-65
2023/05/19 10:00:32;;;;;;;4.03;1.90;;;14.80;99.90;;;;;;5053355;28;20221;-65
2023/05/19 10:03:03;;;;;;;8.02;2.55;;;14.90;99.90;;;;;;5004278;28;20224;-65
2023/05/19 10:05:31;;;;;;;5.78;2.33;;;14.90;99.90;;;;;;5044333;28;20365;-65
2023/05/19 10:07:58;;;;;;;5.63;2.05;;;15.00;99.90;;;;;;5038343;28;20812;-65
2023/05/19 10:10:26;;;;;;;6.75;1.90;;;15.00;99.90;;;;;;5038720;28;20228;-65
2023/05/19 10:12:55;;;;;;;7.18;2.05;;;14.90;99.90;;;;;;5043381;28;20228;-65
2023/05/19 10:15:22;;;;;;;4.47;2.08;;;15.10;99.90;;;;;;5055164;28;20250;-65
2023/05/19 10:17:50;;;;;;;6.43;2.22;;;15.30;99.90;;;;;;5022048;28;21226;-65
2023/05/19 10:20:18;;;;;;;4.15;1.88;;;15.30;99.90;;;;;;5046313;28;20235;-65
2023/05/19 10:22:47;;;;;;;7.78;2.45;;;15.40;99.90;;;;;;5046225;28;20224;-65
2023/05/19 10:25:18;;;;;;;5.95;2.22;;;15.40;99.90;;;;;;5039095;28;20244;-65
2023/05/19 10:27:51;;;;;;;3.67;1.98;;;15.60;99.90;;;;;;5036456;28;21700;-65
2023/05/19 10:30:25;;;;;;;5.32;1.75;;;15.50;99.90;;;;;;5048848;28;20290;-65
2023/05/19 10:32:55;;;;;;;4.28;1.58;;;15.40;99.90;;;;;;5025046;28;20231;-65
2023/05/19 10:35:51;;;;;;;6.03;2.00;;;15.40;99.90;;;;;;5044203;28;20216;-65
2023/05/19 10:38:28;;;;;;;4.50;1.90;;;15.40;99.90;;;;;;5038976;28;20228;-66
2023/05/19 10:41:03;;;;;;;4.97;1.92;;;15.40;99.90;;;;;;5049182;28;20218;-65
2023/05/19 10:43:44;;;;;;;5.13;2.03;;;15.30;99.90;;;;;;5014326;28;20203;-65
2023/05/19 10:46:12;;;;;;;4.38;1.40;;;15.50;99.90;;;;;;5028081;28;20200;-66
2023/05/19 10:48:44;;;;;;;4.13;1.67;;;15.70;99.90;;;;;;5025463;28;20211;-65
2023/05/19 10:51:14;;;;;;;3.60;1.67;;;15.80;99.90;;;;;;5032465;28;20298;-65
2023/05/19 10:53:45;;;;;;;3.83;2.00;;;15.80;99.90;;;;;;5047489;28;20220;-65
2023/05/19 10:56:27;;;;;;;4.20;1.85;;;15.70;99.90;;;;;;5040561;28;20231;-65
2023/05/19 10:58:55;;;;;;;3.17;1.85;;;15.70;99.90;;;;;;5028708;28;20223;-65
2023/05/19 11:01:23;;;;;;;3.95;1.55;;;15.80;99.90;;;;;;5040009;28;20373;-65
2023/05/19 11:03:52;;;;;;;3.65;1.63;;;15.50;99.90;;;;;;5051965;28;20227;-65
2023/05/19 11:06:24;;;;;;;6.78;1.98;;;15.50;99.90;;;;;;5017207;28;21076;-65
2023/05/19 11:08:57;;;;;;;5.72;2.10;;;15.50;99.90;;;;;;5034554;28;20224;-65
2023/05/19 11:11:25;;;;;;;4.95;1.80;;;15.50;99.90;;;;;;5038463;28;20232;-65
2023/05/19 11:13:53;;;;;;;6.55;1.73;;;15.50;99.90;;;;;;5037302;28;20569;-65
2023/05/19 11:16:26;;;;;;;4.07;1.50;;;15.50;99.90;;;;;;5034459;28;21270;-65
2023/05/19 11:18:54;;;;;;;5.68;1.90;;;15.70;99.90;;;;;;5057009;28;20293;-65
2023/05/19 11:21:22;;;;;;;4.97;1.65;;;15.80;99.90;;;;;;5012649;28;20720;-64
2023/05/19 11:23:51;;;;;;;5.35;1.95;;;15.90;99.90;;;;;;5044259;28;20231;-63
2023/05/19 11:26:41;;;;;;;5.63;1.60;;;16.00;99.90;;;;;;5025282;28;20203;-65
2023/05/19 11:29:09;;;;;;;3.20;1.55;;;15.80;99.90;;;;;;5038706;28;20506;-65
2023/05/19 11:31:36;;;;;;;3.30;1.70;;;15.80;99.90;;;;;;5049410;28;20228;-64
2023/05/19 11:34:05;;;;;;;3.75;1.55;;;15.90;99.90;;;;;;5055025;28;20223;-63
2023/05/19 11:36:33;;;;;;;7.10;1.92;;;15.90;99.90;;;;;;5027283;28;21279;-63
2023/05/19 11:39:02;;;;;;;3.15;1.60;;;16.00;99.90;;;;;;5045954;28;20212;-64
2023/05/19 11:41:29;;;;;;;3.35;1.42;;;16.10;99.90;;;;;;5048110;28;21321;-63
2023/05/19 11:43:56;;;;;;;9.43;1.75;;;16.10;99.90;;;;;;5042960;28;21263;-63
2023/05/19 11:46:24;;;;;;;5.47;1.73;;;16.00;99.90;;;;;;5037145;28;20220;-64
2023/05/19 11:48:50;;;;;;;4.45;1.95;;;16.10;99.90;;;;;;5044877;22;20565;-64
2023/05/19 11:51:17;;;;;;;6.03;2.58;;;16.30;99.90;;;;;;5007241;28;20776;-63
2023/05/19 11:53:48;;;;;;;5.47;2.10;;;16.30;99.90;;;;;;5023045;28;20232;-63
2023/05/19 11:56:15;;;;;;;5.60;1.98;;;16.50;99.90;;;;;;5023668;28;20228;-64
2023/05/19 11:58:41;;;;;;;3.17;1.52;;;16.50;99.90;;;;;;5028692;28;20414;-64
2023/05/19 12:01:09;;;;;;;4.95;1.98;;;16.50;99.90;;;;;;5027865;28;20219;-64
2023/05/19 12:03:35;;;;;;;6.18;2.03;;;16.50;99.90;;;;;;5015723;28;20458;-63
2023/05/19 12:06:04;;;;;;;2.60;1.33;;;16.60;99.90;;;;;;5037346;28;20276;-64
2023/05/19 12:08:31;;;;;;;4.57;1.63;;;16.60;99.90;;;;;;4993641;28;20216;-64
2023/05/19 12:10:59;;;;;;;3.08;1.48;;;16.60;99.90;;;;;;5042404;28;20203;-64
2023/05/19 12:13:27;;;;;;;3.20;1.70;;;16.50;99.90;;;;;;4980104;28;20227;-64
2023/05/19 12:15:54;;;;;;;6.10;1.55;;;16.50;99.90;;;;;;5021138;28;20221;-64
2023/05/19 12:18:21;;;;;;;4.68;1.85;;;16.50;99.90;;;;;;5016782;28;20215;-63
2023/05/19 12:20:48;;;;;;;2.55;1.27;;;16.40;99.90;;;;;;5041103;28;20201;-64
2023/05/19 12:23:15;;;;;;;5.63;1.70;;;16.40;99.90;;;;;;4986816;28;21722;-64
2023/05/19 12:25:42;;;;;;;5.18;1.70;;;16.40;99.90;;;;;;5038061;28;20747;-64
2023/05/19 12:28:10;;;;;;;3.50;1.55;;;16.40;99.90;;;;;;5001045;28;20656;-64
2023/05/19 12:30:37;;;;;;;5.47;1.83;;;16.40;99.90;;;;;;5020634;28;20235;-64
2023/05/19 12:33:04;;;;;;;2.78;1.50;;;16.60;99.90;;;;;;5007342;28;20229;-64
2023/05/19 12:35:32;;;;;;;4.30;1.92;;;16.70;99.90;;;;;;5037496;28;20193;-64
2023/05/19 12:38:03;;;;;;;2.33;1.60;;;16.90;99.90;;;;;;4999401;28;20244;-64
2023/05/19 12:40:30;;;;;;;7.07;1.75;;;17.00;99.90;;;;;;5016536;28;20278;-64
2023/05/19 12:42:58;;;;;;;3.65;1.70;;;17.20;99.90;;;;;;5002879;28;20709;-64
2023/05/19 12:45:27;;;;;;;3.78;1.85;;;17.10;99.90;;;;;;5022280;28;20605;-64
2023/05/19 12:47:54;;;;;;;4.75;1.73;;;17.00;99.90;;;;;;5019758;28;20228;-64
2023/05/19 12:50:20;;;;;;;3.03;1.63;;;16.80;99.90;;;;;;5013297;28;20212;-64
2023/05/19 12:52:50;;;;;;;3.15;1.90;;;16.70;99.90;;;;;;5009788;28;20233;-64
2023/05/19 12:55:19;;;;;;;3.33;1.85;;;16.60;99.90;;;;;;5020839;28;20229;-63